sensor_id;sensor_type;location;lat;lon;timestamp;pressure;altitude;pressure_sealevel;temperature;humidity
7333;BME280;3707;43.618;25.342;2022-09-17T00:01:15;99139.06;;;24.67;78.55
7333;BME280;3707;43.618;25.342;2022-09-17T00:03:43;99139.25;;;24.64;79.95
7333;BME280;3707;43.618;25.342;2022-09-17T00:06:13;99130.38;;;24.49;80.99
7333;BME280;3707;43.618;25.342;2022-09-17T00:08:40;99124.41;;;24.46;84.44
7333;BME280;3707;43.618;25.342;2022-09-17T00:11:08;99131.81;;;24.55;88.10
7333;BME280;3707;43.618;25.342;2022-09-17T00:13:35;99122.00;;;24.41;89.17
7333;BME280;3707;43.618;25.342;2022-09-17T00:16:02;99118.00;;;24.34;90.33
7333;BME280;3707;43.618;25.342;2022-09-17T00:18:29;99118.75;;;24.21;91.56
7333;BME280;3707;43.618;25.342;2022-09-17T00:20:58;99110.22;;;24.15;91.78
7333;BME280;3707;43.618;25.342;2022-09-17T00:23:24;99112.06;;;23.98;91.03
7333;BME280;3707;43.618;25.342;2022-09-17T00:25:51;99104.53;;;23.90;91.18
7333;BME280;3707;43.618;25.342;2022-09-17T00:28:18;99109.81;;;23.90;90.68
7333;BME280;3707;43.618;25.342;2022-09-17T00:30:45;99089.59;;;23.89;88.94
7333;BME280;3707;43.618;25.342;2022-09-17T00:33:13;99085.16;;;23.90;88.46
7333;BME280;3707;43.618;25.342;2022-09-17T00:35:41;99104.53;;;23.90;88.34
7333;BME280;3707;43.618;25.342;2022-09-17T00:38:09;99103.34;;;23.96;86.67
7333;BME280;3707;43.618;25.342;2022-09-17T00:40:37;99058.84;;;23.71;86.59
7333;BME280;3707;43.618;25.342;2022-09-17T00:43:09;99103.22;;;24.14;85.06
7333;BME280;3707;43.618;25.342;2022-09-17T00:45:37;99104.72;;;24.03;84.82
7333;BME280;3707;43.618;25.342;2022-09-17T00:48:05;99106.25;;;24.07;83.90
7333;BME280;3707;43.618;25.342;2022-09-17T00:50:34;99096.66;;;24.04;83.56
7333;BME280;3707;43.618;25.342;2022-09-17T00:53:04;99100.66;;;24.13;83.62
7333;BME280;3707;43.618;25.342;2022-09-17T00:55:35;99099.47;;;24.18;82.99
7333;BME280;3707;43.618;25.342;2022-09-17T00:58:05;99084.97;;;24.08;84.35
7333;BME280;3707;43.618;25.342;2022-09-17T01:00:33;99101.81;;;24.07;83.29
7333;BME280;3707;43.618;25.342;2022-09-17T01:03:03;99089.63;;;24.21;82.94
7333;BME280;3707;43.618;25.342;2022-09-17T01:05:33;99088.88;;;24.18;83.67
7333;BME280;3707;43.618;25.342;2022-09-17T01:08:08;99087.16;;;24.17;83.60
7333;BME280;3707;43.618;25.342;2022-09-17T01:10:50;99085.94;;;24.23;82.68
7333;BME280;3707;43.618;25.342;2022-09-17T01:13:30;99081.50;;;24.24;83.59
7333;BME280;3707;43.618;25.342;2022-09-17T01:16:04;99063.78;;;24.08;84.18
7333;BME280;3707;43.618;25.342;2022-09-17T01:18:44;99081.50;;;24.24;83.44
7333;BME280;3707;43.618;25.342;2022-09-17T01:21:36;99076.81;;;24.29;82.89
7333;BME280;3707;43.618;25.342;2022-09-17T01:27:26;99057.91;;;24.35;82.89
7333;BME280;3707;43.618;25.342;2022-09-17T01:30:16;99061.66;;;24.31;81.91
7333;BME280;3707;43.618;25.342;2022-09-17T01:32:48;99064.25;;;24.32;82.51
7333;BME280;3707;43.618;25.342;2022-09-17T01:35:24;99061.09;;;24.26;82.64
7333;BME280;3707;43.618;25.342;2022-09-17T01:38:00;99036.03;;;24.15;84.47
7333;BME280;3707;43.618;25.342;2022-09-17T01:40:37;99048.91;;;24.37;86.67
7333;BME280;3707;43.618;25.342;2022-09-17T01:43:09;99046.75;;;24.44;85.87
7333;BME280;3707;43.618;25.342;2022-09-17T01:45:45;99049.16;;;24.48;85.25
7333;BME280;3707;43.618;25.342;2022-09-17T01:48:17;99043.34;;;24.42;84.63
7333;BME280;3707;43.618;25.342;2022-09-17T01:50:48;99058.19;;;24.60;83.10
7333;BME280;3707;43.618;25.342;2022-09-17T01:53:19;99041.16;;;24.34;100.00
7333;BME280;3707;43.618;25.342;2022-09-17T01:55:49;99030.97;;;24.27;100.00
7333;BME280;3707;43.618;25.342;2022-09-17T01:58:20;99022.53;;;24.20;100.00
7333;BME280;3707;43.618;25.342;2022-09-17T02:00:51;99025.78;;;24.09;100.00
7333;BME280;3707;43.618;25.342;2022-09-17T02:03:25;99027.66;;;24.07;100.00
7333;BME280;3707;43.618;25.342;2022-09-17T02:05:59;99023.81;;;23.97;100.00
7333;BME280;3707;43.618;25.342;2022-09-17T02:08:29;99018.09;;;23.89;100.00
7333;BME280;3707;43.618;25.342;2022-09-17T02:11:01;98941.25;;;23.44;100.00
7333;BME280;3707;43.618;25.342;2022-09-17T02:13:32;98998.63;;;23.75;100.00
7333;BME280;3707;43.618;25.342;2022-09-17T02:16:05;99008.97;;;23.79;100.00
7333;BME280;3707;43.618;25.342;2022-09-17T02:18:36;98985.47;;;23.73;100.00
7333;BME280;3707;43.618;25.342;2022-09-17T02:21:09;98998.09;;;23.84;100.00
7333;BME280;3707;43.618;25.342;2022-09-17T02:23:49;99002.41;;;23.86;100.00
7333;BME280;3707;43.618;25.342;2022-09-17T02:26:19;98995.22;;;23.88;100.00
7333;BME280;3707;43.618;25.342;2022-09-17T02:28:49;99001.53;;;23.70;100.00
7333;BME280;3707;43.618;25.342;2022-09-17T02:31:17;98997.25;;;23.52;100.00
7333;BME280;3707;43.618;25.342;2022-09-17T02:33:48;98994.28;;;23.58;100.00
7333;BME280;3707;43.618;25.342;2022-09-17T02:36:15;98998.88;;;23.54;100.00
7333;BME280;3707;43.618;25.342;2022-09-17T02:38:43;99003.41;;;23.68;100.00
7333;BME280;3707;43.618;25.342;2022-09-17T02:41:14;99015.38;;;23.75;100.00
7333;BME280;3707;43.618;25.342;2022-09-17T02:43:50;99001.88;;;23.80;100.00
7333;BME280;3707;43.618;25.342;2022-09-17T02:46:35;98974.88;;;23.73;100.00
7333;BME280;3707;43.618;25.342;2022-09-17T02:49:23;98994.28;;;23.89;100.00
7333;BME280;3707;43.618;25.342;2022-09-17T02:52:01;98992.56;;;23.88;100.00
7333;BME280;3707;43.618;25.342;2022-09-17T02:54:36;98983.06;;;23.84;100.00
7333;BME280;3707;43.618;25.342;2022-09-17T02:57:13;98971.47;;;23.71;100.00
7333;BME280;3707;43.618;25.342;2022-09-17T02:59:49;98963.78;;;23.66;100.00
7333;BME280;3707;43.618;25.342;2022-09-17T03:02:21;98934.66;;;23.51;100.00
7333;BME280;3707;43.618;25.342;2022-09-17T03:04:51;98919.72;;;23.34;100.00
7333;BME280;3707;43.618;25.342;2022-09-17T03:07:18;98932.69;;;23.39;100.00
7333;BME280;3707;43.618;25.342;2022-09-17T03:09:45;98914.25;;;23.21;100.00
7333;BME280;3707;43.618;25.342;2022-09-17T03:12:13;98934.56;;;23.37;100.00
7333;BME280;3707;43.618;25.342;2022-09-17T03:14:39;98930.72;;;23.27;100.00
7333;BME280;3707;43.618;25.342;2022-09-17T03:17:06;98928.25;;;23.23;100.00
7333;BME280;3707;43.618;25.342;2022-09-17T03:19:33;98916.47;;;23.13;100.00
7333;BME280;3707;43.618;25.342;2022-09-17T03:22:01;98927.38;;;23.23;100.00
7333;BME280;3707;43.618;25.342;2022-09-17T03:24:28;98913.06;;;23.11;100.00
7333;BME280;3707;43.618;25.342;2022-09-17T03:26:55;98917.56;;;23.09;100.00
7333;BME280;3707;43.618;25.342;2022-09-17T03:29:22;98931.88;;;23.05;100.00
7333;BME280;3707;43.618;25.342;2022-09-17T03:31:49;98921.31;;;23.05;100.00
7333;BME280;3707;43.618;25.342;2022-09-17T03:34:16;98890.25;;;22.93;100.00
7333;BME280;3707;43.618;25.342;2022-09-17T03:36:42;98871.66;;;22.79;100.00
7333;BME280;3707;43.618;25.342;2022-09-17T03:39:11;98890.34;;;22.92;100.00
7333;BME280;3707;43.618;25.342;2022-09-17T03:41:37;98875.56;;;22.88;100.00
7333;BME280;3707;43.618;25.342;2022-09-17T03:44:04;98866.19;;;22.82;100.00
7333;BME280;3707;43.618;25.342;2022-09-17T03:46:31;98876.50;;;22.87;100.00
7333;BME280;3707;43.618;25.342;2022-09-17T03:48:58;98871.84;;;22.92;100.00
7333;BME280;3707;43.618;25.342;2022-09-17T03:51:25;98873.78;;;22.88;100.00
7333;BME280;3707;43.618;25.342;2022-09-17T03:53:51;98874.81;;;22.86;100.00
7333;BME280;3707;43.618;25.342;2022-09-17T03:56:19;98882.81;;;22.84;100.00
7333;BME280;3707;43.618;25.342;2022-09-17T03:58:46;98864.41;;;22.65;100.00
7333;BME280;3707;43.618;25.342;2022-09-17T04:01:13;98871.91;;;22.75;100.00
7333;BME280;3707;43.618;25.342;2022-09-17T04:03:40;98880.06;;;22.70;100.00
7333;BME280;3707;43.618;25.342;2022-09-17T04:06:07;98869.69;;;22.65;100.00
7333;BME280;3707;43.618;25.342;2022-09-17T04:08:34;98874.47;;;22.92;100.00
7333;BME280;3707;43.618;25.342;2022-09-17T04:11:01;98878.34;;;23.17;98.77
7333;BME280;3707;43.618;25.342;2022-09-17T04:13:29;98876.81;;;23.45;94.17
7333;BME280;3707;43.618;25.342;2022-09-17T04:15:55;98869.19;;;23.54;92.09
7333;BME280;3707;43.618;25.342;2022-09-17T04:18:22;98874.59;;;23.68;90.03
7333;BME280;3707;43.618;25.342;2022-09-17T04:20:49;98857.03;;;23.82;89.06
7333;BME280;3707;43.618;25.342;2022-09-17T04:23:16;98872.88;;;23.97;87.55
7333;BME280;3707;43.618;25.342;2022-09-17T04:25:43;98873.75;;;24.12;85.68
7333;BME280;3707;43.618;25.342;2022-09-17T04:28:10;98867.19;;;24.19;85.78
7333;BME280;3707;43.618;25.342;2022-09-17T04:30:38;98865.19;;;24.23;85.02
7333;BME280;3707;43.618;25.342;2022-09-17T04:33:05;98871.66;;;24.18;84.96
7333;BME280;3707;43.618;25.342;2022-09-17T04:35:32;98862.22;;;24.29;83.97
7333;BME280;3707;43.618;25.342;2022-09-17T04:37:59;98865.72;;;24.43;83.00
7333;BME280;3707;43.618;25.342;2022-09-17T04:40:26;98881.53;;;24.59;83.35
7333;BME280;3707;43.618;25.342;2022-09-17T04:42:53;98876.81;;;24.50;88.29
7333;BME280;3707;43.618;25.342;2022-09-17T04:45:20;98855.22;;;24.42;85.88
7333;BME280;3707;43.618;25.342;2022-09-17T04:47:48;98881.66;;;24.72;89.01
7333;BME280;3707;43.618;25.342;2022-09-17T04:50:16;98883.25;;;24.60;94.13
7333;BME280;3707;43.618;25.342;2022-09-17T04:52:43;98874.03;;;24.37;98.38
7333;BME280;3707;43.618;25.342;2022-09-17T04:55:10;98883.78;;;24.51;99.56
7333;BME280;3707;43.618;25.342;2022-09-17T04:57:37;98884.19;;;24.59;100.00
7333;BME280;3707;43.618;25.342;2022-09-17T05:00:05;98877.00;;;24.75;99.45
7333;BME280;3707;43.618;25.342;2022-09-17T05:02:32;98865.75;;;24.72;98.45
7333;BME280;3707;43.618;25.342;2022-09-17T05:05:00;98863.56;;;24.78;100.00
7333;BME280;3707;43.618;25.342;2022-09-17T05:07:27;98870.00;;;24.74;99.46
7333;BME280;3707;43.618;25.342;2022-09-17T05:09:54;98869.78;;;24.49;100.00
7333;BME280;3707;43.618;25.342;2022-09-17T05:12:20;98857.19;;;24.38;100.00
7333;BME280;3707;43.618;25.342;2022-09-17T05:14:47;98857.44;;;24.19;100.00
7333;BME280;3707;43.618;25.342;2022-09-17T05:17:14;98857.25;;;24.23;100.00
7333;BME280;3707;43.618;25.342;2022-09-17T05:19:40;98855.09;;;24.15;100.00
7333;BME280;3707;43.618;25.342;2022-09-17T05:22:09;98848.66;;;24.33;100.00
7333;BME280;3707;43.618;25.342;2022-09-17T05:24:35;98871.69;;;24.47;99.11
7333;BME280;3707;43.618;25.342;2022-09-17T05:27:04;98873.84;;;24.54;97.31
7333;BME280;3707;43.618;25.342;2022-09-17T05:29:31;98860.53;;;24.84;92.40
7333;BME280;3707;43.618;25.342;2022-09-17T05:31:57;98866.31;;;24.91;87.34
7333;BME280;3707;43.618;25.342;2022-09-17T05:34:24;98869.03;;;25.17;86.31
7333;BME280;3707;43.618;25.342;2022-09-17T05:36:51;98850.13;;;24.95;92.00
7333;BME280;3707;43.618;25.342;2022-09-17T05:39:19;98863.56;;;24.64;100.00
7333;BME280;3707;43.618;25.342;2022-09-17T05:41:49;98878.31;;;24.54;100.00
7333;BME280;3707;43.618;25.342;2022-09-17T05:44:16;98878.31;;;24.54;100.00
7333;BME280;3707;43.618;25.342;2022-09-17T05:46:43;98882.84;;;24.66;100.00
7333;BME280;3707;43.618;25.342;2022-09-17T05:49:10;98884.56;;;24.67;100.00
7333;BME280;3707;43.618;25.342;2022-09-17T05:51:37;98886.44;;;24.65;100.00
7333;BME280;3707;43.618;25.342;2022-09-17T05:54:04;98866.59;;;24.72;100.00
7333;BME280;3707;43.618;25.342;2022-09-17T05:56:32;98879.88;;;25.00;100.00
7333;BME280;3707;43.618;25.342;2022-09-17T05:58:59;98870.88;;;24.89;100.00
7333;BME280;3707;43.618;25.342;2022-09-17T06:01:26;98834.59;;;24.47;100.00
7333;BME280;3707;43.618;25.342;2022-09-17T06:03:53;98832.09;;;24.44;100.00
7333;BME280;3707;43.618;25.342;2022-09-17T06:06:20;98866.28;;;24.62;100.00
7333;BME280;3707;43.618;25.342;2022-09-17T06:08:47;98857.88;;;24.70;100.00
7333;BME280;3707;43.618;25.342;2022-09-17T06:11:13;98868.94;;;24.62;100.00
7333;BME280;3707;43.618;25.342;2022-09-17T06:13:41;98873.75;;;24.42;100.00
7333;BME280;3707;43.618;25.342;2022-09-17T06:16:08;98879.31;;;24.23;100.00
7333;BME280;3707;43.618;25.342;2022-09-17T06:18:35;98862.78;;;24.04;100.00
7333;BME280;3707;43.618;25.342;2022-09-17T06:21:03;98875.44;;;24.29;100.00
7333;BME280;3707;43.618;25.342;2022-09-17T06:23:31;98849.59;;;24.18;100.00
7333;BME280;3707;43.618;25.342;2022-09-17T06:26:00;98857.25;;;24.23;100.00
7333;BME280;3707;43.618;25.342;2022-09-17T06:28:27;98861.81;;;24.21;100.00
7333;BME280;3707;43.618;25.342;2022-09-17T06:30:58;98865.06;;;24.40;100.00
7333;BME280;3707;43.618;25.342;2022-09-17T06:33:25;98849.31;;;24.37;100.00
7333;BME280;3707;43.618;25.342;2022-09-17T06:35:55;98871.69;;;24.33;100.00
7333;BME280;3707;43.618;25.342;2022-09-17T06:38:22;98902.78;;;24.15;100.00
7333;BME280;3707;43.618;25.342;2022-09-17T06:40:49;98899.94;;;24.18;100.00
7333;BME280;3707;43.618;25.342;2022-09-17T06:43:16;98903.06;;;24.25;100.00
7333;BME280;3707;43.618;25.342;2022-09-17T06:45:43;98898.31;;;24.30;100.00
7333;BME280;3707;43.618;25.342;2022-09-17T06:48:11;98895.44;;;24.48;100.00
7333;BME280;3707;43.618;25.342;2022-09-17T06:50:38;98889.06;;;24.37;100.00
7333;BME280;3707;43.618;25.342;2022-09-17T06:53:05;98886.25;;;24.40;100.00
7333;BME280;3707;43.618;25.342;2022-09-17T06:55:32;98913.91;;;24.64;100.00
7333;BME280;3707;43.618;25.342;2022-09-17T06:57:59;98928.38;;;24.58;100.00
7333;BME280;3707;43.618;25.342;2022-09-17T07:00:26;98900.59;;;24.22;100.00
7333;BME280;3707;43.618;25.342;2022-09-17T07:02:56;98859.63;;;23.97;100.00
7333;BME280;3707;43.618;25.342;2022-09-17T07:05:26;98947.91;;;24.57;100.00
7333;BME280;3707;43.618;25.342;2022-09-17T07:07:53;98942.91;;;24.67;100.00
7333;BME280;3707;43.618;25.342;2022-09-17T07:10:21;98919.81;;;24.83;100.00
7333;BME280;3707;43.618;25.342;2022-09-17T07:12:48;98914.16;;;24.89;100.00
7333;BME280;3707;43.618;25.342;2022-09-17T07:15:15;98917.66;;;25.18;100.00
7333;BME280;3707;43.618;25.342;2022-09-17T07:17:42;98902.41;;;25.48;100.00
7333;BME280;3707;43.618;25.342;2022-09-17T07:20:10;98907.16;;;25.84;100.00
7333;BME280;3707;43.618;25.342;2022-09-17T07:22:38;98901.63;;;25.87;94.84
7333;BME280;3707;43.618;25.342;2022-09-17T07:25:06;98902.94;;;25.94;89.76
7333;BME280;3707;43.618;25.342;2022-09-17T07:27:33;98889.75;;;25.93;84.35
7333;BME280;3707;43.618;25.342;2022-09-17T07:30:00;98889.00;;;26.18;80.80
7333;BME280;3707;43.618;25.342;2022-09-17T07:32:28;98892.13;;;26.49;80.28
7333;BME280;3707;43.618;25.342;2022-09-17T07:34:55;98896.16;;;26.55;77.05
7333;BME280;3707;43.618;25.342;2022-09-17T07:37:22;98896.44;;;26.76;74.40
7333;BME280;3707;43.618;25.342;2022-09-17T07:39:50;98899.56;;;27.07;73.08
7333;BME280;3707;43.618;25.342;2022-09-17T07:42:17;98899.75;;;27.04;70.87
7333;BME280;3707;43.618;25.342;2022-09-17T07:44:44;98896.19;;;27.29;70.36
7333;BME280;3707;43.618;25.342;2022-09-17T07:47:11;98888.06;;;27.56;69.36
7333;BME280;3707;43.618;25.342;2022-09-17T07:49:38;98896.84;;;27.93;67.67
7333;BME280;3707;43.618;25.342;2022-09-17T07:52:07;98889.59;;;28.30;65.16
7333;BME280;3707;43.618;25.342;2022-09-17T07:54:34;98889.66;;;28.63;63.77
7333;BME280;3707;43.618;25.342;2022-09-17T07:57:04;98898.91;;;29.26;63.18
7333;BME280;3707;43.618;25.342;2022-09-17T07:59:30;98899.38;;;29.53;62.63
7333;BME280;3707;43.618;25.342;2022-09-17T08:01:57;98909.78;;;29.67;60.55
7333;BME280;3707;43.618;25.342;2022-09-17T08:04:24;98861.94;;;28.99;60.25
7333;BME280;3707;43.618;25.342;2022-09-17T08:06:51;98932.91;;;29.13;59.14
7333;BME280;3707;43.618;25.342;2022-09-17T08:09:18;98920.88;;;29.18;58.10
7333;BME280;3707;43.618;25.342;2022-09-17T08:11:44;98940.91;;;29.24;56.29
7333;BME280;3707;43.618;25.342;2022-09-17T08:14:14;98929.50;;;29.55;55.14
7333;BME280;3707;43.618;25.342;2022-09-17T08:16:41;98931.22;;;29.34;56.49
7333;BME280;3707;43.618;25.342;2022-09-17T08:19:09;98918.84;;;29.11;56.35
7333;BME280;3707;43.618;25.342;2022-09-17T08:21:36;98912.88;;;29.29;55.66
7333;BME280;3707;43.618;25.342;2022-09-17T08:24:04;98909.22;;;29.52;55.35
7333;BME280;3707;43.618;25.342;2022-09-17T08:26:30;98897.25;;;29.36;52.99
7333;BME280;3707;43.618;25.342;2022-09-17T08:28:57;98929.16;;;29.37;53.80
7333;BME280;3707;43.618;25.342;2022-09-17T08:31:26;98929.75;;;29.30;53.97
7333;BME280;3707;43.618;25.342;2022-09-17T08:33:54;98899.63;;;28.72;54.75
7333;BME280;3707;43.618;25.342;2022-09-17T08:36:21;98917.72;;;28.91;53.90
7333;BME280;3707;43.618;25.342;2022-09-17T08:38:52;98894.31;;;29.05;54.35
7333;BME280;3707;43.618;25.342;2022-09-17T08:41:27;98871.38;;;29.14;55.49
7333;BME280;3707;43.618;25.342;2022-09-17T08:44:12;98904.25;;;29.15;55.55
7333;BME280;3707;43.618;25.342;2022-09-17T08:46:45;98906.19;;;29.01;57.05
7333;BME280;3707;43.618;25.342;2022-09-17T08:49:21;98915.06;;;29.24;57.08
7333;BME280;3707;43.618;25.342;2022-09-17T08:52:08;98897.59;;;28.98;56.63
7333;BME280;3707;43.618;25.342;2022-09-17T08:54:48;98929.63;;;28.98;57.79
7333;BME280;3707;43.618;25.342;2022-09-17T08:57:24;98935.00;;;28.63;59.38
7333;BME280;3707;43.618;25.342;2022-09-17T08:59:58;98935.06;;;29.19;58.25
7333;BME280;3707;43.618;25.342;2022-09-17T09:02:52;98921.00;;;28.94;59.11
7333;BME280;3707;43.618;25.342;2022-09-17T09:05:25;98927.66;;;29.22;57.87
7333;BME280;3707;43.618;25.342;2022-09-17T09:07:59;98921.34;;;28.90;58.51
7333;BME280;3707;43.618;25.342;2022-09-17T09:10:30;98935.09;;;28.85;58.53
7333;BME280;3707;43.618;25.342;2022-09-17T09:12:58;98928.03;;;28.73;58.42
7333;BME280;3707;43.618;25.342;2022-09-17T09:15:32;98923.44;;;28.75;58.16
7333;BME280;3707;43.618;25.342;2022-09-17T09:18:11;98920.97;;;28.72;57.69
7333;BME280;3707;43.618;25.342;2022-09-17T09:20:43;98896.31;;;28.57;58.51
7333;BME280;3707;43.618;25.342;2022-09-17T09:23:17;98924.19;;;28.65;57.46
7333;BME280;3707;43.618;25.342;2022-09-17T09:25:52;98884.41;;;28.39;57.46
7333;BME280;3707;43.618;25.342;2022-09-17T09:28:32;98927.97;;;28.62;56.97
7333;BME280;3707;43.618;25.342;2022-09-17T09:31:08;98940.66;;;28.47;57.77
7333;BME280;3707;43.618;25.342;2022-09-17T09:33:43;98917.84;;;28.67;57.71
7333;BME280;3707;43.618;25.342;2022-09-17T09:36:13;98927.94;;;28.86;57.09
7333;BME280;3707;43.618;25.342;2022-09-17T09:38:45;98926.34;;;28.94;57.13
7333;BME280;3707;43.618;25.342;2022-09-17T09:41:18;98941.41;;;29.29;56.15
7333;BME280;3707;43.618;25.342;2022-09-17T09:43:46;98936.31;;;29.03;56.08
7333;BME280;3707;43.618;25.342;2022-09-17T09:49:24;98925.13;;;28.87;56.17
7333;BME280;3707;43.618;25.342;2022-09-17T09:52:04;98932.69;;;28.58;55.90
7333;BME280;3707;43.618;25.342;2022-09-17T09:54:47;98931.41;;;28.29;57.12
7333;BME280;3707;43.618;25.342;2022-09-17T09:57:21;98946.25;;;28.10;58.35
7333;BME280;3707;43.618;25.342;2022-09-17T10:00:21;98956.81;;;27.98;58.56
7333;BME280;3707;43.618;25.342;2022-09-17T10:02:52;98940.81;;;27.98;59.10
7333;BME280;3707;43.618;25.342;2022-09-17T10:05:22;98940.91;;;27.97;58.96
7333;BME280;3707;43.618;25.342;2022-09-17T10:07:49;98955.16;;;27.61;60.75
7333;BME280;3707;43.618;25.342;2022-09-17T10:10:16;98947.19;;;27.61;61.60
7333;BME280;3707;43.618;25.342;2022-09-17T10:12:43;98944.44;;;27.50;63.05
7333;BME280;3707;43.618;25.342;2022-09-17T10:15:24;98958.09;;;27.69;62.90
7333;BME280;3707;43.618;25.342;2022-09-17T10:20:55;98963.00;;;27.75;64.05
7333;BME280;3707;43.618;25.342;2022-09-17T10:23:25;98959.00;;;27.57;65.43
7333;BME280;3707;43.618;25.342;2022-09-17T10:25:53;98966.03;;;27.33;67.19
7333;BME280;3707;43.618;25.342;2022-09-17T10:28:34;98967.09;;;27.43;67.79
7333;BME280;3707;43.618;25.342;2022-09-17T10:31:06;98979.75;;;27.65;68.45
7333;BME280;3707;43.618;25.342;2022-09-17T10:33:38;98960.25;;;27.64;68.34
7333;BME280;3707;43.618;25.342;2022-09-17T10:36:08;98976.81;;;27.80;69.50
7333;BME280;3707;43.618;25.342;2022-09-17T10:38:39;98968.19;;;27.53;72.47
7333;BME280;3707;43.618;25.342;2022-09-17T10:41:19;98990.75;;;27.84;72.34
7333;BME280;3707;43.618;25.342;2022-09-17T10:43:47;98990.13;;;28.17;69.58
7333;BME280;3707;43.618;25.342;2022-09-17T10:46:18;98991.22;;;28.14;69.68
7333;BME280;3707;43.618;25.342;2022-09-17T10:48:53;98977.19;;;28.23;69.08
7333;BME280;3707;43.618;25.342;2022-09-17T10:51:24;99001.06;;;28.48;67.74
7333;BME280;3707;43.618;25.342;2022-09-17T10:56:58;98998.59;;;28.11;70.32
7333;BME280;3707;43.618;25.342;2022-09-17T10:59:48;99007.13;;;27.67;71.86
7333;BME280;3707;43.618;25.342;2022-09-17T11:03:08;99017.56;;;27.44;74.83
7333;BME280;3707;43.618;25.342;2022-09-17T11:05:58;99025.25;;;27.24;76.68
7333;BME280;3707;43.618;25.342;2022-09-17T11:08:34;99012.59;;;26.89;78.86
7333;BME280;3707;43.618;25.342;2022-09-17T11:11:09;99047.72;;;26.94;81.05
7333;BME280;3707;43.618;25.342;2022-09-17T11:13:40;99058.88;;;26.87;82.24
7333;BME280;3707;43.618;25.342;2022-09-17T11:16:24;99061.50;;;26.74;81.93
7333;BME280;3707;43.618;25.342;2022-09-17T11:19:07;99089.16;;;26.72;82.79
7333;BME280;3707;43.618;25.342;2022-09-17T11:21:42;99099.19;;;26.13;86.62
7333;BME280;3707;43.618;25.342;2022-09-17T11:24:31;99089.72;;;25.95;90.54
7333;BME280;3707;43.618;25.342;2022-09-17T11:27:06;99104.84;;;25.80;95.45
7333;BME280;3707;43.618;25.342;2022-09-17T11:29:56;99100.84;;;25.87;99.01
7333;BME280;3707;43.618;25.342;2022-09-17T11:32:43;99115.22;;;26.11;100.00
7333;BME280;3707;43.618;25.342;2022-09-17T11:35:16;99115.28;;;26.38;99.74
7333;BME280;3707;43.618;25.342;2022-09-17T11:37:50;99078.69;;;26.15;100.00
7333;BME280;3707;43.618;25.342;2022-09-17T11:40:24;99113.88;;;26.33;100.00
7333;BME280;3707;43.618;25.342;2022-09-17T11:42:57;99103.59;;;26.41;100.00
7333;BME280;3707;43.618;25.342;2022-09-17T11:45:31;99057.53;;;26.13;100.00
7333;BME280;3707;43.618;25.342;2022-09-17T11:48:03;99035.03;;;25.78;100.00
7333;BME280;3707;43.618;25.342;2022-09-17T11:50:36;99062.28;;;26.08;100.00
7333;BME280;3707;43.618;25.342;2022-09-17T11:53:10;99043.91;;;25.91;99.15
7333;BME280;3707;43.618;25.342;2022-09-17T11:55:47;99049.53;;;25.87;99.15
7333;BME280;3707;43.618;25.342;2022-09-17T11:58:20;99040.75;;;25.58;97.86
7333;BME280;3707;43.618;25.342;2022-09-17T12:00:53;99030.59;;;25.50;99.50
7333;BME280;3707;43.618;25.342;2022-09-17T12:03:27;99024.63;;;25.47;100.00
7333;BME280;3707;43.618;25.342;2022-09-17T12:06:00;99026.69;;;25.42;100.00
7333;BME280;3707;43.618;25.342;2022-09-17T12:08:41;99012.56;;;25.27;100.00
7333;BME280;3707;43.618;25.342;2022-09-17T12:11:16;99008.97;;;25.42;100.00
7333;BME280;3707;43.618;25.342;2022-09-17T12:13:47;99015.50;;;25.37;100.00
7333;BME280;3707;43.618;25.342;2022-09-17T12:16:20;99015.22;;;25.27;100.00
7333;BME280;3707;43.618;25.342;2022-09-17T12:18:56;99000.63;;;25.20;100.00
7333;BME280;3707;43.618;25.342;2022-09-17T12:21:30;99012.69;;;25.40;100.00
7333;BME280;3707;43.618;25.342;2022-09-17T12:24:06;99000.38;;;25.53;100.00
7333;BME280;3707;43.618;25.342;2022-09-17T12:26:52;98989.16;;;25.62;100.00
7333;BME280;3707;43.618;25.342;2022-09-17T12:35:16;98939.56;;;25.48;100.00
7333;BME280;3707;43.618;25.342;2022-09-17T12:37:58;98986.75;;;25.86;99.16
7333;BME280;3707;43.618;25.342;2022-09-17T12:40:34;98974.00;;;25.64;100.00
7333;BME280;3707;43.618;25.342;2022-09-17T12:43:18;98974.16;;;25.75;97.65
7333;BME280;3707;43.618;25.342;2022-09-17T12:46:04;98953.84;;;25.74;94.97
7333;BME280;3707;43.618;25.342;2022-09-17T12:51:41;98940.75;;;25.85;93.95
7333;BME280;3707;43.618;25.342;2022-09-17T12:54:21;98951.34;;;26.12;92.65
7333;BME280;3707;43.618;25.342;2022-09-17T12:56:58;98933.47;;;26.28;92.81
7333;BME280;3707;43.618;25.342;2022-09-17T12:59:31;98949.53;;;26.52;93.81
7333;BME280;3707;43.618;25.342;2022-09-17T13:02:02;98958.19;;;26.93;94.38
7333;BME280;3707;43.618;25.342;2022-09-17T13:04:47;98954.34;;;27.23;89.38
7333;BME280;3707;43.618;25.342;2022-09-17T13:07:36;98954.81;;;27.04;87.80
7333;BME280;3707;43.618;25.342;2022-09-17T13:13:03;98929.75;;;27.19;89.72
7333;BME280;3707;43.618;25.342;2022-09-17T13:15:45;98902.72;;;27.13;89.06
7333;BME280;3707;43.618;25.342;2022-09-17T13:18:22;98911.47;;;27.15;91.24
7333;BME280;3707;43.618;25.342;2022-09-17T13:20:58;98919.25;;;27.05;92.66
7333;BME280;3707;43.618;25.342;2022-09-17T13:23:36;98916.81;;;27.02;91.92
7333;BME280;3707;43.618;25.342;2022-09-17T13:26:05;98899.03;;;26.90;92.42
7333;BME280;3707;43.618;25.342;2022-09-17T13:28:39;98887.97;;;26.71;92.01
7333;BME280;3707;43.618;25.342;2022-09-17T13:31:08;98907.94;;;26.76;94.31
7333;BME280;3707;43.618;25.342;2022-09-17T13:33:53;98893.06;;;26.86;92.48
7333;BME280;3707;43.618;25.342;2022-09-17T13:36:35;98869.44;;;26.44;96.62
7333;BME280;3707;43.618;25.342;2022-09-17T13:39:05;98874.03;;;26.67;95.73
7333;BME280;3707;43.618;25.342;2022-09-17T13:41:34;98856.03;;;26.58;94.94
7333;BME280;3707;43.618;25.342;2022-09-17T13:44:02;98846.69;;;26.40;96.97
7333;BME280;3707;43.618;25.342;2022-09-17T13:46:31;98836.84;;;26.02;100.00
7333;BME280;3707;43.618;25.342;2022-09-17T13:49:01;98805.28;;;25.85;100.00
7333;BME280;3707;43.618;25.342;2022-09-17T13:51:55;98809.16;;;25.67;100.00
7333;BME280;3707;43.618;25.342;2022-09-17T13:54:35;98787.56;;;26.11;100.00